createdAt,value
2019-01-19T00:02:34.709Z,100887.07
2019-01-19T00:05:40.874Z,100887.22
2019-01-19T00:08:39.619Z,100885.88
2019-01-19T00:12:18.467Z,100889.45
2019-01-19T00:15:18.075Z,100886.14
2019-01-19T00:18:58.073Z,100888.36
2019-01-19T00:22:10.126Z,100881.48
2019-01-19T00:25:34.523Z,100887.52
2019-01-19T00:28:31.486Z,100887.56
2019-01-19T00:31:20.022Z,100886.12
2019-01-19T00:34:39.358Z,100887.30
2019-01-19T00:37:26.115Z,100883.45
2019-01-19T00:41:12.071Z,100888.69
2019-01-19T00:44:42.910Z,100886.12
2019-01-19T00:48:15.426Z,100883.64
2019-01-19T00:51:49.578Z,100889.13
2019-01-19T00:54:45.318Z,100886.31
2019-01-19T00:58:13.164Z,100894.09
2019-01-19T01:01:02.847Z,100886.33
2019-01-19T01:03:45.091Z,100885.88
2019-01-19T01:07:14.409Z,100892.62
2019-01-19T01:10:26.217Z,100892.20
2019-01-19T01:13:35.729Z,100893.08
2019-01-19T01:17:02.615Z,100890.59
2019-01-19T01:20:22.134Z,100881.73
2019-01-19T01:23:46.691Z,100883.28
2019-01-19T01:27:01.894Z,100889.00
2019-01-19T01:30:42.998Z,100895.58
2019-01-19T01:34:06.932Z,100896.02
2019-01-19T01:37:30.059Z,100893.81
2019-01-19T01:40:51.215Z,100894.22
2019-01-19T01:44:00.763Z,100895.20
2019-01-19T01:47:28.046Z,100892.86
2019-01-19T01:50:14.020Z,100894.23
2019-01-19T01:53:32.832Z,100893.11
2019-01-19T01:56:07.582Z,100889.34
2019-01-19T01:59:13.535Z,100878.39
2019-01-19T02:02:04.010Z,100880.61
2019-01-19T02:05:05.990Z,100875.79
2019-01-19T02:08:27.553Z,100872.73
2019-01-19T02:11:50.271Z,100878.55
2019-01-19T02:15:07.002Z,100869.29
2019-01-19T02:18:23.714Z,100879.66
2019-01-19T02:22:01.603Z,100866.92
2019-01-19T02:25:26.487Z,100866.27
2019-01-19T02:28:59.168Z,100858.27
2019-01-19T02:32:02.969Z,100860.44
2019-01-19T02:34:59.439Z,100860.77
2019-01-19T02:37:48.210Z,100859.59
2019-01-19T02:41:04.590Z,100857.28
2019-01-19T02:44:26.807Z,100858.40
2019-01-19T02:47:44.254Z,100853.55
2019-01-19T02:50:52.067Z,100840.92
2019-01-19T02:54:28.043Z,100851.03
2019-01-19T02:58:05.356Z,100840.73
2019-01-19T03:01:21.134Z,100838.77
2019-01-19T03:04:34.873Z,100838.94
2019-01-19T03:07:42.226Z,100832.74
2019-01-19T03:10:42.508Z,100828.74
2019-01-19T03:14:10.260Z,100824.70
2019-01-19T03:17:28.625Z,100821.05
2019-01-19T03:21:05.519Z,100823.29
2019-01-19T03:24:21.088Z,100820.77
2019-01-19T03:27:51.420Z,100824.58
2019-01-19T03:31:22.397Z,100815.21
2019-01-19T03:34:33.431Z,100813.28
2019-01-19T03:38:00.723Z,100813.39
2019-01-19T03:41:11.645Z,100816.36
2019-01-19T03:44:30.066Z,100818.56
2019-01-19T03:47:41.070Z,100816.95
2019-01-19T03:51:02.717Z,100812.14
2019-01-19T03:54:12.323Z,100812.41
2019-01-19T03:57:26.449Z,100808.88
2019-01-19T04:00:41.038Z,100807.44
2019-01-19T04:03:57.722Z,100802.59
2019-01-19T04:07:18.124Z,100802.59
2019-01-19T04:11:12.565Z,100798.73
2019-01-19T04:14:24.681Z,100801.31
2019-01-19T04:18:07.278Z,100797.28
2019-01-19T04:21:38.122Z,100794.43
2019-01-19T04:24:39.302Z,100794.83
2019-01-19T04:27:07.158Z,100790.23
2019-01-19T04:29:35.298Z,100790.27
2019-01-19T04:32:03.230Z,100782.22
2019-01-19T04:34:31.402Z,100785.55
2019-01-19T04:36:59.898Z,100783.00
2019-01-19T04:39:27.007Z,100783.63
2019-01-19T04:41:56.163Z,100788.45
2019-01-19T04:44:23.791Z,100782.93
2019-01-19T04:46:51.034Z,100789.33
2019-01-19T04:49:18.207Z,100785.58
2019-01-19T04:51:45.911Z,100783.50
2019-01-19T04:54:13.177Z,100777.83
2019-01-19T04:56:40.694Z,100776.56
2019-01-19T04:59:08.154Z,100777.95
2019-01-19T05:01:36.866Z,100777.00
2019-01-19T05:04:04.759Z,100774.25
2019-01-19T05:06:36.948Z,100773.98
2019-01-19T05:09:07.483Z,100770.23
2019-01-19T05:11:35.143Z,100771.73
2019-01-19T05:14:03.063Z,100770.05
2019-01-19T05:16:31.006Z,100766.16
2019-01-19T05:18:58.439Z,100771.27
2019-01-19T05:21:26.364Z,100769.65
2019-01-19T05:23:54.747Z,100772.23
2019-01-19T05:26:22.247Z,100768.48
2019-01-19T05:28:49.642Z,100765.09
2019-01-19T05:31:16.916Z,100765.82
2019-01-19T05:33:44.479Z,100766.92
2019-01-19T05:36:11.991Z,100772.47
2019-01-19T05:38:39.994Z,100765.31
2019-01-19T05:41:07.951Z,100763.55
2019-01-19T05:43:35.259Z,100764.95
2019-01-19T05:46:03.226Z,100762.80
2019-01-19T05:48:33.006Z,100764.89
2019-01-19T05:51:00.411Z,100769.03
2019-01-19T05:53:28.418Z,100766.37
2019-01-19T05:55:56.531Z,100766.71
2019-01-19T05:58:24.138Z,100763.55
2019-01-19T06:00:51.753Z,100755.59
2019-01-19T06:03:19.213Z,100761.98
2019-01-19T06:05:48.290Z,100762.97
2019-01-19T06:08:16.205Z,100764.28
2019-01-19T06:10:44.572Z,100769.48
2019-01-19T06:13:12.149Z,100772.86
2019-01-19T06:15:39.926Z,100766.64
2019-01-19T06:18:08.078Z,100767.27
2019-01-19T06:20:35.476Z,100763.13
2019-01-19T06:23:03.159Z,100760.97
2019-01-19T06:25:31.001Z,100769.52
2019-01-19T06:27:58.212Z,100768.65
2019-01-19T06:30:28.350Z,100765.44
2019-01-19T06:32:56.103Z,100767.62
2019-01-19T06:35:23.889Z,100773.23
2019-01-19T06:37:51.523Z,100770.22
2019-01-19T06:40:19.396Z,100774.47
2019-01-19T06:42:47.041Z,100769.15
2019-01-19T06:45:26.542Z,100777.23
2019-01-19T06:47:54.948Z,100782.19
2019-01-19T06:50:22.711Z,100777.45
2019-01-19T06:52:50.566Z,100777.50
2019-01-19T06:55:25.355Z,100782.46
2019-01-19T06:57:53.250Z,100777.50
2019-01-19T07:00:21.355Z,100772.66
2019-01-19T07:02:49.425Z,100780.88
2019-01-19T07:05:17.195Z,100777.98
2019-01-19T07:07:44.602Z,100776.52
2019-01-19T07:10:16.054Z,100780.65
2019-01-19T07:12:43.816Z,100782.11
2019-01-19T07:15:12.725Z,100779.80
2019-01-19T07:17:40.155Z,100786.81
2019-01-19T07:20:14.720Z,100778.38
2019-01-19T07:22:42.950Z,100779.71
2019-01-19T07:25:10.603Z,100782.60
2019-01-19T07:27:38.213Z,100786.95
2019-01-19T07:30:10.638Z,100784.42
2019-01-19T07:32:38.438Z,100785.75
2019-01-19T07:35:06.216Z,100787.44
2019-01-19T07:37:38.936Z,100791.52
2019-01-19T07:40:09.101Z,100790.67
2019-01-19T07:42:37.911Z,100796.84
2019-01-19T07:45:06.434Z,100794.58
2019-01-19T07:47:35.858Z,100792.72
2019-01-19T07:50:05.397Z,100794.31
2019-01-19T07:52:32.508Z,100791.88
2019-01-19T07:55:00.527Z,100795.02
2019-01-19T07:57:31.412Z,100792.23
2019-01-19T07:59:57.490Z,100797.94
2019-01-19T08:02:24.667Z,100799.36
2019-01-19T08:04:52.460Z,100801.80
2019-01-19T08:07:20.694Z,100797.05
2019-01-19T08:09:48.592Z,100795.35
2019-01-19T08:12:16.563Z,100807.38
2019-01-19T08:14:43.839Z,100796.61
2019-01-19T08:17:11.624Z,100800.43
2019-01-19T08:19:39.258Z,100801.06
2019-01-19T08:22:06.848Z,100792.65
2019-01-19T08:24:34.209Z,100799.64
2019-01-19T08:27:02.036Z,100806.16
2019-01-19T08:29:29.548Z,100797.10
2019-01-19T08:31:57.135Z,100802.14
2019-01-19T08:34:24.964Z,100800.76
2019-01-19T08:36:52.924Z,100798.44
2019-01-19T08:39:21.155Z,100797.52
2019-01-19T08:41:48.568Z,100800.98
2019-01-19T08:44:15.843Z,100796.42
2019-01-19T08:46:43.707Z,100794.13
2019-01-19T08:49:11.126Z,100795.06
2019-01-19T08:51:38.473Z,100791.69
2019-01-19T08:54:06.300Z,100788.66
2019-01-19T08:56:33.857Z,100793.03
2019-01-19T08:59:01.279Z,100787.91
2019-01-19T09:01:29.033Z,100797.72
2019-01-19T09:03:56.382Z,100799.09
2019-01-19T09:06:24.357Z,100795.36
2019-01-19T09:08:51.736Z,100795.87
2019-01-19T09:11:19.558Z,100794.84
2019-01-19T09:13:47.367Z,100793.87
2019-01-19T09:16:20.505Z,100783.14
2019-01-19T09:18:47.880Z,100787.41
2019-01-19T09:21:15.709Z,100785.32
2019-01-19T09:24:05.489Z,100785.61
2019-01-19T09:26:33.501Z,100782.23
2019-01-19T09:29:01.110Z,100784.36
2019-01-19T09:31:29.136Z,100787.10
2019-01-19T09:33:56.646Z,100786.94
2019-01-19T09:36:24.580Z,100781.42
2019-01-19T09:38:52.122Z,100780.28
2019-01-19T09:41:19.879Z,100782.44
2019-01-19T09:43:49.393Z,100773.18
2019-01-19T09:46:17.230Z,100786.12
2019-01-19T09:48:44.727Z,100772.48
2019-01-19T09:51:13.688Z,100777.14
2019-01-19T09:53:41.737Z,100777.35
2019-01-19T09:56:09.835Z,100773.23
2019-01-19T09:58:37.478Z,100773.31
2019-01-19T10:01:05.650Z,100772.85
2019-01-19T10:03:33.419Z,100765.34
2019-01-19T10:06:01.393Z,100767.09
2019-01-19T10:08:28.652Z,100762.70
2019-01-19T10:10:56.606Z,100761.02
2019-01-19T10:13:24.301Z,100758.83
2019-01-19T10:15:51.534Z,100752.12
2019-01-19T10:18:20.472Z,100744.99
2019-01-19T10:20:48.397Z,100752.55
2019-01-19T10:23:16.066Z,100747.64
2019-01-19T10:25:44.238Z,100744.73
2019-01-19T10:28:13.537Z,100739.10
2019-01-19T10:30:41.165Z,100735.77
2019-01-19T10:33:09.339Z,100744.53
2019-01-19T10:35:37.134Z,100734.59
2019-01-19T10:38:04.662Z,100729.80
2019-01-19T10:40:32.393Z,100729.25
2019-01-19T10:42:59.866Z,100723.55
2019-01-19T10:45:28.125Z,100721.66
2019-01-19T10:47:56.538Z,100729.72
2019-01-19T10:50:24.284Z,100716.11
2019-01-19T10:52:52.543Z,100715.52
2019-01-19T10:55:20.670Z,100706.52
2019-01-19T10:57:48.696Z,100711.11
2019-01-19T11:00:25.646Z,100709.70
2019-01-19T11:02:53.829Z,100705.58
2019-01-19T11:05:21.717Z,100703.44
2019-01-19T11:07:50.264Z,100700.53
2019-01-19T11:10:20.932Z,100696.39
2019-01-19T11:12:48.594Z,100690.70
2019-01-19T11:15:16.466Z,100680.25
2019-01-19T11:17:47.072Z,100681.78
2019-01-19T11:20:28.847Z,100676.58
2019-01-19T11:22:58.164Z,100675.70
2019-01-19T11:25:25.533Z,100668.70
2019-01-19T11:27:53.147Z,100669.58
2019-01-19T11:30:26.505Z,100663.09
2019-01-19T11:32:54.002Z,100659.98
2019-01-19T11:35:21.985Z,100653.36
2019-01-19T11:37:49.844Z,100648.28
2019-01-19T11:40:37.763Z,100643.13
2019-01-19T11:43:10.048Z,100636.08
2019-01-19T11:45:37.985Z,100637.67
2019-01-19T11:48:06.792Z,100628.77
2019-01-19T11:50:34.605Z,100615.67
2019-01-19T11:53:03.014Z,100614.06
2019-01-19T11:55:31.585Z,100608.70
2019-01-19T11:58:02.120Z,100613.06
2019-01-19T12:00:31.928Z,100606.31
2019-01-19T12:02:59.323Z,100601.16
2019-01-19T12:05:26.829Z,100595.84
2019-01-19T12:07:54.770Z,100602.95
2019-01-19T12:10:26.000Z,100587.91
2019-01-19T12:12:55.377Z,100584.51
2019-01-19T12:15:23.911Z,100585.91
2019-01-19T12:17:51.524Z,100580.08
2019-01-19T12:20:37.546Z,100569.81
2019-01-19T12:23:06.138Z,100568.09
2019-01-19T12:25:33.952Z,100556.88
2019-01-19T12:28:01.807Z,100557.78
2019-01-19T12:30:30.420Z,100551.48
2019-01-19T12:32:58.583Z,100553.91
2019-01-19T12:35:26.326Z,100547.98
2019-01-19T12:37:57.766Z,100546.79
2019-01-19T12:40:26.427Z,100540.98
2019-01-19T12:43:16.343Z,100540.38
2019-01-19T12:46:00.039Z,100525.59
2019-01-19T12:48:28.001Z,100519.48
2019-01-19T12:50:55.811Z,100528.31
2019-01-19T12:53:24.501Z,100520.64
2019-01-19T12:55:51.771Z,100519.59
2019-01-19T12:58:19.338Z,100509.88
2019-01-19T13:00:46.887Z,100505.70
2019-01-19T13:03:16.265Z,100505.08
2019-01-19T13:06:43.027Z,100505.39
2019-01-19T13:09:23.646Z,100501.77
2019-01-19T13:12:42.198Z,100494.73
2019-01-19T13:16:13.099Z,100495.48
2019-01-19T13:19:45.428Z,100483.48
2019-01-19T13:23:54.162Z,100478.77
2019-01-19T13:27:11.262Z,100474.91
2019-01-19T13:30:25.661Z,100460.39
2019-01-19T13:33:10.008Z,100452.58
2019-01-19T13:36:11.731Z,100449.91
2019-01-19T13:39:42.426Z,100448.05
2019-01-19T13:43:22.536Z,100438.48
2019-01-19T13:46:06.705Z,100438.26
2019-01-19T13:49:17.418Z,100443.14
2019-01-19T13:52:44.335Z,100435.88
2019-01-19T13:56:18.419Z,100428.75
2019-01-19T13:59:49.865Z,100432.67
2019-01-19T14:03:26.033Z,100422.23
2019-01-19T14:06:57.872Z,100421.66
2019-01-19T14:09:54.365Z,100413.88
2019-01-19T14:13:16.790Z,100414.72
2019-01-19T14:16:18.613Z,100403.63
2019-01-19T14:19:17.693Z,100400.28
2019-01-19T14:22:42.033Z,100398.22
2019-01-19T14:26:09.274Z,100397.42
2019-01-19T14:29:37.539Z,100394.56
2019-01-19T14:33:08.579Z,100395.12
2019-01-19T14:36:31.198Z,100389.72
2019-01-19T14:39:49.224Z,100395.95
2019-01-19T14:42:48.003Z,100385.03
2019-01-19T14:45:49.674Z,100381.30
2019-01-19T14:49:11.465Z,100381.11
2019-01-19T14:52:13.269Z,100376.55
2019-01-19T14:56:09.625Z,100375.27
2019-01-19T14:59:41.457Z,100373.95
2019-01-19T15:02:55.955Z,100372.48
2019-01-19T15:05:53.401Z,100365.97
2019-01-19T15:08:53.067Z,100372.55
2019-01-19T15:12:11.187Z,100367.55
2019-01-19T15:15:22.946Z,100364.44
2019-01-19T15:18:33.208Z,100369.03
2019-01-19T15:21:22.170Z,100364.53
2019-01-19T15:24:17.531Z,100359.08
2019-01-19T15:27:22.975Z,100365.27
2019-01-19T15:30:29.972Z,100365.64
2019-01-19T15:33:49.821Z,100366.16
2019-01-19T15:37:32.086Z,100359.19
2019-01-19T15:40:34.145Z,100358.13
2019-01-19T15:43:24.721Z,100355.92
2019-01-19T15:46:49.458Z,100359.40
2019-01-19T15:50:16.805Z,100358.31
2019-01-19T15:53:11.835Z,100359.80
2019-01-19T15:56:11.318Z,100361.78
2019-01-19T15:59:19.284Z,100358.09
2019-01-19T16:02:54.869Z,100361.76
2019-01-19T16:06:44.880Z,100354.78
2019-01-19T16:10:27.815Z,100359.39
2019-01-19T16:13:19.889Z,100361.87
2019-01-19T16:16:42.562Z,100362.37
2019-01-19T16:20:13.406Z,100368.42
2019-01-19T16:23:51.990Z,100372.50
2019-01-19T16:27:00.700Z,100370.88
2019-01-19T16:30:12.048Z,100371.19
2019-01-19T16:33:36.681Z,100374.03
2019-01-19T16:37:08.831Z,100365.00
2019-01-19T16:40:21.202Z,100365.51
2019-01-19T16:43:18.947Z,100369.37
2019-01-19T16:46:44.869Z,100374.27
2019-01-19T16:49:56.721Z,100368.08
2019-01-19T16:53:39.522Z,100374.44
2019-01-19T16:56:59.556Z,100371.60
2019-01-19T17:00:32.447Z,100371.60
2019-01-19T17:04:40.808Z,100373.95
2019-01-19T17:08:02.201Z,100384.00
2019-01-19T17:11:16.571Z,100379.98
2019-01-19T17:14:41.651Z,100376.97
2019-01-19T17:17:50.417Z,100380.10
2019-01-19T17:21:35.477Z,100376.37
2019-01-19T17:24:33.015Z,100376.73
2019-01-19T17:27:55.818Z,100376.16
2019-01-19T17:31:33.783Z,100371.33
2019-01-19T17:34:52.542Z,100369.98
2019-01-19T17:38:24.755Z,100375.66
2019-01-19T17:41:50.958Z,100377.54
2019-01-19T17:44:56.142Z,100366.95
2019-01-19T17:48:23.357Z,100376.39
2019-01-19T17:51:36.318Z,100378.81
2019-01-19T17:54:41.881Z,100373.38
2019-01-19T17:57:44.247Z,100375.16
2019-01-19T18:00:49.951Z,100380.20
2019-01-19T18:04:10.249Z,100378.03
2019-01-19T18:07:26.283Z,100376.55
2019-01-19T18:10:30.022Z,100371.56
2019-01-19T18:13:50.693Z,100372.73
2019-01-19T18:17:16.163Z,100365.41
2019-01-19T18:20:44.840Z,100367.27
2019-01-19T18:23:54.521Z,100369.34
2019-01-19T18:27:31.456Z,100371.01
2019-01-19T18:30:38.543Z,100365.89
2019-01-19T18:33:55.867Z,100370.62
2019-01-19T18:37:13.587Z,100366.09
2019-01-19T18:40:27.074Z,100371.91
2019-01-19T18:43:39.477Z,100370.50
2019-01-19T18:46:50.013Z,100363.81
2019-01-19T18:50:27.789Z,100366.66
2019-01-19T18:53:38.068Z,100362.72
2019-01-19T18:57:20.305Z,100367.94
2019-01-19T19:00:50.869Z,100363.36
2019-01-19T19:04:22.576Z,100366.45
2019-01-19T19:07:46.627Z,100366.77
2019-01-19T19:11:24.806Z,100366.37
2019-01-19T19:14:49.590Z,100361.34
2019-01-19T19:18:21.152Z,100369.64
2019-01-19T19:21:55.543Z,100364.52
2019-01-19T19:25:12.587Z,100363.43
2019-01-19T19:28:34.643Z,100355.79
2019-01-19T19:31:47.307Z,100348.30
2019-01-19T19:35:01.984Z,100351.39
2019-01-19T19:38:21.637Z,100354.55
2019-01-19T19:41:59.428Z,100352.75
2019-01-19T19:45:05.670Z,100353.11
2019-01-19T19:48:32.497Z,100356.23
2019-01-19T19:51:54.603Z,100343.84
2019-01-19T19:54:23.586Z,100346.27
2019-01-19T19:56:51.605Z,100348.42
2019-01-19T19:59:19.175Z,100346.84
2019-01-19T20:01:47.149Z,100346.25
2019-01-19T20:04:15.002Z,100347.39
2019-01-19T20:06:42.739Z,100354.88
2019-01-19T20:09:11.016Z,100355.50
2019-01-19T20:11:38.924Z,100350.82
2019-01-19T20:14:06.788Z,100348.34
2019-01-19T20:16:35.456Z,100349.17
2019-01-19T20:19:03.719Z,100345.05
2019-01-19T20:21:31.754Z,100344.70
2019-01-19T20:23:59.265Z,100344.48
2019-01-19T20:26:26.932Z,100343.48
2019-01-19T20:28:54.668Z,100342.62
2019-01-19T20:31:22.742Z,100344.97
2019-01-19T20:33:50.763Z,100346.86
2019-01-19T20:36:17.943Z,100342.46
2019-01-19T20:38:45.699Z,100350.47
2019-01-19T20:41:13.216Z,100356.58
2019-01-19T20:43:40.740Z,100353.30
2019-01-19T20:46:08.428Z,100352.50
2019-01-19T20:48:37.676Z,100365.19
2019-01-19T20:51:07.333Z,100354.63
2019-01-19T20:53:35.525Z,100349.82
2019-01-19T20:56:03.838Z,100352.39
2019-01-19T20:58:32.166Z,100349.07
2019-01-19T21:01:01.070Z,100356.91
2019-01-19T21:03:28.702Z,100353.53
2019-01-19T21:05:57.158Z,100361.91
2019-01-19T21:08:24.755Z,100359.44
2019-01-19T21:10:52.789Z,100359.73
2019-01-19T21:13:20.474Z,100362.83
2019-01-19T21:15:47.690Z,100363.33
2019-01-19T21:18:16.360Z,100362.91
2019-01-19T21:20:44.984Z,100364.05
2019-01-19T21:23:12.456Z,100356.54
2019-01-19T21:25:50.104Z,100367.13
2019-01-19T21:28:22.665Z,100365.26
2019-01-19T21:30:51.373Z,100369.25
2019-01-19T21:33:18.785Z,100368.54
2019-01-19T21:35:51.504Z,100376.56
2019-01-19T21:38:18.870Z,100369.10
2019-01-19T21:40:47.187Z,100364.53
2019-01-19T21:43:16.521Z,100365.33
2019-01-19T21:45:50.525Z,100361.18
2019-01-19T21:48:27.459Z,100352.56
2019-01-19T21:50:56.156Z,100357.41
2019-01-19T21:53:24.166Z,100363.65
2019-01-19T21:55:51.789Z,100361.40
2019-01-19T21:58:19.938Z,100361.75
2019-01-19T22:00:47.369Z,100367.52
2019-01-19T22:03:15.863Z,100365.41
2019-01-19T22:05:49.503Z,100368.77
2019-01-19T22:08:16.851Z,100368.86
2019-01-19T22:10:46.361Z,100368.72
2019-01-19T22:13:14.131Z,100367.03
2019-01-19T22:15:41.654Z,100362.46
2019-01-19T22:18:09.901Z,100363.30
2019-01-19T22:20:37.902Z,100364.78
2019-01-19T22:23:05.704Z,100366.39
2019-01-19T22:25:33.493Z,100366.94
2019-01-19T22:28:01.731Z,100366.69
2019-01-19T22:30:32.303Z,100368.64
2019-01-19T22:33:02.073Z,100362.47
2019-01-19T22:35:30.060Z,100371.63
2019-01-19T22:37:58.023Z,100364.97
2019-01-19T22:40:25.485Z,100367.78
2019-01-19T22:42:57.407Z,100367.78
2019-01-19T22:45:25.244Z,100365.81
2019-01-19T22:47:53.171Z,100362.59
2019-01-19T22:50:21.113Z,100363.64
2019-01-19T22:52:48.964Z,100361.95
2019-01-19T22:55:17.990Z,100361.20
2019-01-19T22:57:45.408Z,100369.98
2019-01-19T23:01:00.774Z,100364.70
2019-01-19T23:03:31.844Z,100361.41
2019-01-19T23:05:59.213Z,100357.12
2019-01-19T23:08:26.913Z,100353.91
2019-01-19T23:11:01.069Z,100358.86
2019-01-19T23:13:27.851Z,100354.67
2019-01-19T23:15:55.250Z,100353.25
2019-01-19T23:18:22.627Z,100354.72
2019-01-19T23:20:50.110Z,100362.28
2019-01-19T23:23:17.991Z,100366.91
2019-01-19T23:25:45.362Z,100360.95
2019-01-19T23:28:12.694Z,100359.61
2019-01-19T23:30:40.371Z,100351.97
2019-01-19T23:33:08.066Z,100360.25
2019-01-19T23:35:35.995Z,100360.69
2019-01-19T23:38:03.562Z,100365.17
2019-01-19T23:40:32.225Z,100361.93
2019-01-19T23:42:59.974Z,100361.83
2019-01-19T23:45:27.439Z,100352.91
2019-01-19T23:47:54.874Z,100355.77
2019-01-19T23:50:22.593Z,100354.14
2019-01-19T23:52:50.255Z,100346.14
2019-01-19T23:55:18.728Z,100347.27
2019-01-19T23:57:46.460Z,100349.45
